2OI6 weather

Park Medical Center Heliport
Columbus, Ohio, United States

Public forecast

Using degrees Fahrenheit for public forecast. Weather courtesy of forecast.io.

METAR (pilot weather report)

Closest report is John Glenn Columbus International Airport, 3.6 nm (6.8 km) ENE. Retrieved 2019/05/21 00:51 UTC (1 hour ago):

KCMH 210051Z 33011KT 10SM SCT250 13/08 A3006 RMK AO2 SLP177 T01330083

TAF (pilot weather forecast)

Forecast is more than 12 hours old.

Closest forecast is John Glenn Columbus International Airport, 3.6 nm (6.8 km) ENE. Retrieved 2019/05/20 00:36 UTC (1 day ago):

TAF KCMH 202333Z 2100/2124 30011KT P6SM SCT045 BKN250 TEMPO 2100/2101 BKN045 FM210300 36004KT P6SM BKN250 FM211200 07008KT P6SM BKN070 FM211700 06009KT P6SM SCT100 BKN250